sensor_id;sensor_type;location;lat;lon;timestamp;P1;durP1;ratioP1;P2;durP2;ratioP2
12314;SDS011;23886;46.614;14.276;2023-04-24T00:01:05;5.83;;;5.33;;
12314;SDS011;23886;46.614;14.276;2023-04-24T00:03:34;5.83;;;5.23;;
12314;SDS011;23886;46.614;14.276;2023-04-24T00:06:01;5.90;;;4.90;;
12314;SDS011;23886;46.614;14.276;2023-04-24T00:08:28;5.50;;;5.00;;
12314;SDS011;23886;46.614;14.276;2023-04-24T00:10:55;6.90;;;4.97;;
12314;SDS011;23886;46.614;14.276;2023-04-24T00:13:24;5.57;;;5.07;;
12314;SDS011;23886;46.614;14.276;2023-04-24T00:15:51;5.80;;;5.20;;
12314;SDS011;23886;46.614;14.276;2023-04-24T00:18:17;5.53;;;5.03;;
12314;SDS011;23886;46.614;14.276;2023-04-24T00:20:44;5.30;;;4.70;;
12314;SDS011;23886;46.614;14.276;2023-04-24T00:23:12;6.40;;;5.07;;
12314;SDS011;23886;46.614;14.276;2023-04-24T00:25:39;9.63;;;4.83;;
12314;SDS011;23886;46.614;14.276;2023-04-24T00:28:06;5.63;;;5.03;;
12314;SDS011;23886;46.614;14.276;2023-04-24T00:30:34;6.50;;;5.57;;
12314;SDS011;23886;46.614;14.276;2023-04-24T00:33:01;6.13;;;5.53;;
12314;SDS011;23886;46.614;14.276;2023-04-24T00:35:29;6.30;;;5.47;;
12314;SDS011;23886;46.614;14.276;2023-04-24T00:37:56;5.63;;;5.13;;
12314;SDS011;23886;46.614;14.276;2023-04-24T00:40:23;5.20;;;4.73;;
12314;SDS011;23886;46.614;14.276;2023-04-24T00:42:50;6.47;;;5.33;;
12314;SDS011;23886;46.614;14.276;2023-04-24T00:45:17;7.17;;;5.20;;
12314;SDS011;23886;46.614;14.276;2023-04-24T00:47:45;5.67;;;5.17;;
12314;SDS011;23886;46.614;14.276;2023-04-24T00:50:14;5.30;;;4.90;;
12314;SDS011;23886;46.614;14.276;2023-04-24T00:52:42;5.10;;;4.60;;
12314;SDS011;23886;46.614;14.276;2023-04-24T00:55:09;5.10;;;4.60;;
12314;SDS011;23886;46.614;14.276;2023-04-24T00:57:36;6.40;;;5.20;;
12314;SDS011;23886;46.614;14.276;2023-04-24T01:00:04;6.77;;;4.90;;
12314;SDS011;23886;46.614;14.276;2023-04-24T01:02:36;6.57;;;4.97;;
12314;SDS011;23886;46.614;14.276;2023-04-24T01:05:10;6.50;;;5.53;;
12314;SDS011;23886;46.614;14.276;2023-04-24T01:07:38;5.53;;;5.00;;
12314;SDS011;23886;46.614;14.276;2023-04-24T01:10:09;7.50;;;5.00;;
12314;SDS011;23886;46.614;14.276;2023-04-24T01:12:36;6.03;;;5.03;;
12314;SDS011;23886;46.614;14.276;2023-04-24T01:15:04;5.33;;;4.83;;
12314;SDS011;23886;46.614;14.276;2023-04-24T01:17:31;7.53;;;5.23;;
12314;SDS011;23886;46.614;14.276;2023-04-24T01:19:59;5.47;;;4.97;;
12314;SDS011;23886;46.614;14.276;2023-04-24T01:22:28;5.70;;;5.10;;
12314;SDS011;23886;46.614;14.276;2023-04-24T01:24:55;5.37;;;4.87;;
12314;SDS011;23886;46.614;14.276;2023-04-24T01:27:22;5.03;;;4.53;;
12314;SDS011;23886;46.614;14.276;2023-04-24T01:29:49;5.50;;;4.50;;
12314;SDS011;23886;46.614;14.276;2023-04-24T01:32:17;5.83;;;5.00;;
12314;SDS011;23886;46.614;14.276;2023-04-24T01:34:45;5.83;;;5.30;;
12314;SDS011;23886;46.614;14.276;2023-04-24T01:37:12;5.30;;;4.80;;
12314;SDS011;23886;46.614;14.276;2023-04-24T01:39:42;6.07;;;5.13;;
12314;SDS011;23886;46.614;14.276;2023-04-24T01:42:09;5.90;;;5.30;;
12314;SDS011;23886;46.614;14.276;2023-04-24T01:44:36;6.03;;;5.53;;
12314;SDS011;23886;46.614;14.276;2023-04-24T01:47:03;6.07;;;5.53;;
12314;SDS011;23886;46.614;14.276;2023-04-24T01:49:31;6.33;;;5.63;;
12314;SDS011;23886;46.614;14.276;2023-04-24T01:51:59;6.50;;;5.80;;
12314;SDS011;23886;46.614;14.276;2023-04-24T01:54:26;8.37;;;6.40;;
12314;SDS011;23886;46.614;14.276;2023-04-24T01:56:54;8.93;;;5.37;;
12314;SDS011;23886;46.614;14.276;2023-04-24T01:59:21;6.73;;;5.60;;
12314;SDS011;23886;46.614;14.276;2023-04-24T02:01:51;5.87;;;5.37;;
12314;SDS011;23886;46.614;14.276;2023-04-24T02:04:18;6.53;;;5.17;;
12314;SDS011;23886;46.614;14.276;2023-04-24T02:06:45;5.90;;;5.30;;
12314;SDS011;23886;46.614;14.276;2023-04-24T02:09:12;6.27;;;5.67;;
12314;SDS011;23886;46.614;14.276;2023-04-24T02:11:39;6.60;;;5.43;;
12314;SDS011;23886;46.614;14.276;2023-04-24T02:14:07;6.00;;;5.40;;
12314;SDS011;23886;46.614;14.276;2023-04-24T02:16:34;6.60;;;5.57;;
12314;SDS011;23886;46.614;14.276;2023-04-24T02:19:01;6.30;;;5.70;;
12314;SDS011;23886;46.614;14.276;2023-04-24T02:21:28;5.97;;;5.47;;
12314;SDS011;23886;46.614;14.276;2023-04-24T02:23:56;6.63;;;5.90;;
12314;SDS011;23886;46.614;14.276;2023-04-24T02:26:23;6.10;;;5.60;;
12314;SDS011;23886;46.614;14.276;2023-04-24T02:28:50;7.70;;;5.83;;
12314;SDS011;23886;46.614;14.276;2023-04-24T02:31:18;5.60;;;5.10;;
12314;SDS011;23886;46.614;14.276;2023-04-24T02:33:45;7.57;;;5.33;;
12314;SDS011;23886;46.614;14.276;2023-04-24T02:36:12;6.07;;;5.57;;
12314;SDS011;23886;46.614;14.276;2023-04-24T02:38:39;5.67;;;5.17;;
12314;SDS011;23886;46.614;14.276;2023-04-24T02:41:06;6.30;;;5.70;;
12314;SDS011;23886;46.614;14.276;2023-04-24T02:43:33;7.00;;;6.07;;
12314;SDS011;23886;46.614;14.276;2023-04-24T02:46:00;7.73;;;6.20;;
12314;SDS011;23886;46.614;14.276;2023-04-24T02:48:29;6.10;;;5.50;;
12314;SDS011;23886;46.614;14.276;2023-04-24T02:50:56;6.47;;;5.87;;
12314;SDS011;23886;46.614;14.276;2023-04-24T02:53:23;6.17;;;5.67;;
12314;SDS011;23886;46.614;14.276;2023-04-24T02:55:50;6.67;;;5.97;;
12314;SDS011;23886;46.614;14.276;2023-04-24T02:58:17;6.47;;;5.87;;
12314;SDS011;23886;46.614;14.276;2023-04-24T03:00:45;6.23;;;5.73;;
12314;SDS011;23886;46.614;14.276;2023-04-24T03:03:12;6.90;;;6.17;;
12314;SDS011;23886;46.614;14.276;2023-04-24T03:05:41;8.17;;;5.77;;
12314;SDS011;23886;46.614;14.276;2023-04-24T03:08:08;8.60;;;6.37;;
12314;SDS011;23886;46.614;14.276;2023-04-24T03:10:36;8.13;;;5.97;;
12314;SDS011;23886;46.614;14.276;2023-04-24T03:13:03;6.67;;;6.00;;
12314;SDS011;23886;46.614;14.276;2023-04-24T03:15:30;6.53;;;5.93;;
12314;SDS011;23886;46.614;14.276;2023-04-24T03:17:57;7.00;;;6.40;;
12314;SDS011;23886;46.614;14.276;2023-04-24T03:20:25;8.23;;;6.70;;
12314;SDS011;23886;46.614;14.276;2023-04-24T03:22:54;7.60;;;6.90;;
12314;SDS011;23886;46.614;14.276;2023-04-24T03:25:21;7.47;;;6.70;;
12314;SDS011;23886;46.614;14.276;2023-04-24T03:27:48;9.40;;;8.13;;
12314;SDS011;23886;46.614;14.276;2023-04-24T03:30:15;8.57;;;7.77;;
12314;SDS011;23886;46.614;14.276;2023-04-24T03:32:42;8.87;;;8.03;;
12314;SDS011;23886;46.614;14.276;2023-04-24T03:35:09;8.03;;;7.23;;
12314;SDS011;23886;46.614;14.276;2023-04-24T03:37:36;8.90;;;8.00;;
12314;SDS011;23886;46.614;14.276;2023-04-24T03:40:05;9.37;;;7.90;;
12314;SDS011;23886;46.614;14.276;2023-04-24T03:42:33;9.13;;;8.00;;
12314;SDS011;23886;46.614;14.276;2023-04-24T03:45:00;9.83;;;7.53;;
12314;SDS011;23886;46.614;14.276;2023-04-24T03:47:27;8.53;;;7.83;;
12314;SDS011;23886;46.614;14.276;2023-04-24T03:49:54;9.20;;;8.40;;
12314;SDS011;23886;46.614;14.276;2023-04-24T03:52:21;8.93;;;8.23;;
12314;SDS011;23886;46.614;14.276;2023-04-24T03:54:48;13.73;;;10.50;;
12314;SDS011;23886;46.614;14.276;2023-04-24T03:57:17;10.90;;;9.53;;
12314;SDS011;23886;46.614;14.276;2023-04-24T03:59:44;9.57;;;8.73;;
12314;SDS011;23886;46.614;14.276;2023-04-24T04:02:11;9.37;;;8.47;;
12314;SDS011;23886;46.614;14.276;2023-04-24T04:04:38;9.40;;;8.57;;
12314;SDS011;23886;46.614;14.276;2023-04-24T04:07:04;10.10;;;9.07;;
12314;SDS011;23886;46.614;14.276;2023-04-24T04:09:32;9.00;;;8.20;;
12314;SDS011;23886;46.614;14.276;2023-04-24T04:11:59;10.47;;;9.37;;
12314;SDS011;23886;46.614;14.276;2023-04-24T04:14:28;10.10;;;9.20;;
12314;SDS011;23886;46.614;14.276;2023-04-24T04:16:55;9.73;;;8.83;;
12314;SDS011;23886;46.614;14.276;2023-04-24T04:19:22;11.27;;;10.17;;
12314;SDS011;23886;46.614;14.276;2023-04-24T04:21:49;9.90;;;9.03;;
12314;SDS011;23886;46.614;14.276;2023-04-24T04:24:18;12.97;;;11.40;;
12314;SDS011;23886;46.614;14.276;2023-04-24T04:26:45;11.67;;;10.57;;
12314;SDS011;23886;46.614;14.276;2023-04-24T04:29:12;11.33;;;10.33;;
12314;SDS011;23886;46.614;14.276;2023-04-24T04:31:41;12.13;;;10.93;;
12314;SDS011;23886;46.614;14.276;2023-04-24T04:34:08;10.97;;;9.87;;
12314;SDS011;23886;46.614;14.276;2023-04-24T04:36:36;11.83;;;10.83;;
12314;SDS011;23886;46.614;14.276;2023-04-24T04:39:05;13.37;;;10.60;;
12314;SDS011;23886;46.614;14.276;2023-04-24T04:41:32;11.90;;;10.80;;
12314;SDS011;23886;46.614;14.276;2023-04-24T04:44:00;12.00;;;10.90;;
12314;SDS011;23886;46.614;14.276;2023-04-24T04:46:29;11.30;;;10.27;;
12314;SDS011;23886;46.614;14.276;2023-04-24T04:49:00;12.83;;;11.43;;
12314;SDS011;23886;46.614;14.276;2023-04-24T04:51:27;13.37;;;11.53;;
12314;SDS011;23886;46.614;14.276;2023-04-24T04:53:56;13.13;;;11.83;;
12314;SDS011;23886;46.614;14.276;2023-04-24T04:56:23;12.73;;;11.37;;
12314;SDS011;23886;46.614;14.276;2023-04-24T04:58:50;12.70;;;11.50;;
12314;SDS011;23886;46.614;14.276;2023-04-24T05:01:17;12.37;;;11.17;;
12314;SDS011;23886;46.614;14.276;2023-04-24T05:03:44;13.03;;;10.47;;
12314;SDS011;23886;46.614;14.276;2023-04-24T05:06:12;12.87;;;10.70;;
12314;SDS011;23886;46.614;14.276;2023-04-24T05:08:39;12.63;;;10.37;;
12314;SDS011;23886;46.614;14.276;2023-04-24T05:11:06;12.43;;;11.30;;
12314;SDS011;23886;46.614;14.276;2023-04-24T05:13:33;11.37;;;10.37;;
12314;SDS011;23886;46.614;14.276;2023-04-24T05:16:00;12.47;;;10.40;;
12314;SDS011;23886;46.614;14.276;2023-04-24T05:18:27;12.13;;;9.87;;
12314;SDS011;23886;46.614;14.276;2023-04-24T05:20:54;10.23;;;9.33;;
12314;SDS011;23886;46.614;14.276;2023-04-24T05:23:22;11.53;;;9.67;;
12314;SDS011;23886;46.614;14.276;2023-04-24T05:25:49;10.90;;;9.80;;
12314;SDS011;23886;46.614;14.276;2023-04-24T05:28:16;10.90;;;9.80;;
12314;SDS011;23886;46.614;14.276;2023-04-24T05:30:43;11.23;;;10.23;;
12314;SDS011;23886;46.614;14.276;2023-04-24T05:33:10;10.83;;;9.73;;
12314;SDS011;23886;46.614;14.276;2023-04-24T05:35:39;10.80;;;9.70;;
12314;SDS011;23886;46.614;14.276;2023-04-24T05:38:10;11.60;;;10.40;;
12314;SDS011;23886;46.614;14.276;2023-04-24T05:40:39;18.63;;;11.50;;
12314;SDS011;23886;46.614;14.276;2023-04-24T05:43:06;18.40;;;10.87;;
12314;SDS011;23886;46.614;14.276;2023-04-24T05:45:33;14.87;;;10.00;;
12314;SDS011;23886;46.614;14.276;2023-04-24T05:48:01;14.60;;;10.20;;
12314;SDS011;23886;46.614;14.276;2023-04-24T05:50:28;12.10;;;9.40;;
12314;SDS011;23886;46.614;14.276;2023-04-24T05:52:55;13.83;;;9.77;;
12314;SDS011;23886;46.614;14.276;2023-04-24T05:55:23;10.80;;;9.57;;
12314;SDS011;23886;46.614;14.276;2023-04-24T05:57:52;14.07;;;9.33;;
12314;SDS011;23886;46.614;14.276;2023-04-24T06:00:19;12.30;;;8.80;;
12314;SDS011;23886;46.614;14.276;2023-04-24T06:02:46;13.63;;;9.13;;
12314;SDS011;23886;46.614;14.276;2023-04-24T06:05:13;10.87;;;8.83;;
12314;SDS011;23886;46.614;14.276;2023-04-24T06:07:41;11.60;;;9.00;;
12314;SDS011;23886;46.614;14.276;2023-04-24T06:10:08;13.03;;;8.63;;
12314;SDS011;23886;46.614;14.276;2023-04-24T06:12:36;11.80;;;9.07;;
12314;SDS011;23886;46.614;14.276;2023-04-24T06:15:05;10.30;;;8.30;;
12314;SDS011;23886;46.614;14.276;2023-04-24T06:17:33;12.27;;;8.30;;
12314;SDS011;23886;46.614;14.276;2023-04-24T06:20:00;9.67;;;8.07;;
12314;SDS011;23886;46.614;14.276;2023-04-24T06:22:28;9.87;;;8.33;;
12314;SDS011;23886;46.614;14.276;2023-04-24T06:24:55;11.87;;;8.70;;
12314;SDS011;23886;46.614;14.276;2023-04-24T06:27:22;10.10;;;7.47;;
12314;SDS011;23886;46.614;14.276;2023-04-24T06:29:49;8.37;;;7.40;;
12314;SDS011;23886;46.614;14.276;2023-04-24T06:32:20;12.77;;;8.50;;
12314;SDS011;23886;46.614;14.276;2023-04-24T06:34:48;9.33;;;7.93;;
12314;SDS011;23886;46.614;14.276;2023-04-24T06:37:15;8.83;;;7.20;;
12314;SDS011;23886;46.614;14.276;2023-04-24T06:39:42;8.23;;;7.37;;
12314;SDS011;23886;46.614;14.276;2023-04-24T06:42:09;8.53;;;7.63;;
12314;SDS011;23886;46.614;14.276;2023-04-24T06:44:36;8.60;;;7.80;;
12314;SDS011;23886;46.614;14.276;2023-04-24T06:47:06;8.13;;;7.43;;
12314;SDS011;23886;46.614;14.276;2023-04-24T06:49:34;9.00;;;7.03;;
12314;SDS011;23886;46.614;14.276;2023-04-24T06:52:01;8.07;;;7.27;;
12314;SDS011;23886;46.614;14.276;2023-04-24T06:54:28;8.60;;;7.60;;
12314;SDS011;23886;46.614;14.276;2023-04-24T06:56:56;7.67;;;6.87;;
12314;SDS011;23886;46.614;14.276;2023-04-24T06:59:23;8.47;;;7.67;;
12314;SDS011;23886;46.614;14.276;2023-04-24T07:01:50;9.87;;;7.53;;
12314;SDS011;23886;46.614;14.276;2023-04-24T07:04:17;8.47;;;7.60;;
12314;SDS011;23886;46.614;14.276;2023-04-24T07:06:47;8.87;;;8.03;;
12314;SDS011;23886;46.614;14.276;2023-04-24T07:09:16;8.33;;;7.40;;
12314;SDS011;23886;46.614;14.276;2023-04-24T07:11:44;8.20;;;7.40;;
12314;SDS011;23886;46.614;14.276;2023-04-24T07:14:11;8.47;;;7.63;;
12314;SDS011;23886;46.614;14.276;2023-04-24T07:16:38;9.50;;;7.47;;
12314;SDS011;23886;46.614;14.276;2023-04-24T07:19:05;8.90;;;7.70;;
12314;SDS011;23886;46.614;14.276;2023-04-24T07:21:32;10.93;;;8.93;;
12314;SDS011;23886;46.614;14.276;2023-04-24T07:24:00;10.37;;;8.17;;
12314;SDS011;23886;46.614;14.276;2023-04-24T07:26:28;9.80;;;8.50;;
12314;SDS011;23886;46.614;14.276;2023-04-24T07:28:56;9.23;;;8.30;;
12314;SDS011;23886;46.614;14.276;2023-04-24T07:31:23;10.30;;;8.33;;
12314;SDS011;23886;46.614;14.276;2023-04-24T07:33:50;9.63;;;8.03;;
12314;SDS011;23886;46.614;14.276;2023-04-24T07:36:17;9.27;;;8.30;;
12314;SDS011;23886;46.614;14.276;2023-04-24T07:38:45;11.57;;;7.90;;
12314;SDS011;23886;46.614;14.276;2023-04-24T07:41:13;10.90;;;8.50;;
12314;SDS011;23886;46.614;14.276;2023-04-24T07:43:40;9.70;;;8.23;;
12314;SDS011;23886;46.614;14.276;2023-04-24T07:46:08;10.73;;;8.07;;
12314;SDS011;23886;46.614;14.276;2023-04-24T07:48:35;9.73;;;8.53;;
12314;SDS011;23886;46.614;14.276;2023-04-24T07:51:02;9.87;;;7.90;;
12314;SDS011;23886;46.614;14.276;2023-04-24T07:53:29;9.17;;;8.27;;
12314;SDS011;23886;46.614;14.276;2023-04-24T07:55:56;9.93;;;8.17;;
12314;SDS011;23886;46.614;14.276;2023-04-24T07:58:25;12.33;;;9.03;;
12314;SDS011;23886;46.614;14.276;2023-04-24T08:00:52;12.10;;;7.93;;
12314;SDS011;23886;46.614;14.276;2023-04-24T08:03:19;9.20;;;8.30;;
12314;SDS011;23886;46.614;14.276;2023-04-24T08:05:46;9.57;;;8.63;;
12314;SDS011;23886;46.614;14.276;2023-04-24T08:08:13;9.50;;;7.97;;
12314;SDS011;23886;46.614;14.276;2023-04-24T08:10:40;9.17;;;8.27;;
12314;SDS011;23886;46.614;14.276;2023-04-24T08:13:07;9.63;;;8.40;;
12314;SDS011;23886;46.614;14.276;2023-04-24T08:15:37;11.90;;;9.13;;
12314;SDS011;23886;46.614;14.276;2023-04-24T08:18:05;9.90;;;8.90;;
12314;SDS011;23886;46.614;14.276;2023-04-24T08:20:32;10.70;;;9.60;;
12314;SDS011;23886;46.614;14.276;2023-04-24T08:22:59;10.50;;;9.50;;
12314;SDS011;23886;46.614;14.276;2023-04-24T08:25:26;11.03;;;8.97;;
12314;SDS011;23886;46.614;14.276;2023-04-24T08:27:53;11.40;;;8.63;;
12314;SDS011;23886;46.614;14.276;2023-04-24T08:30:20;9.80;;;8.83;;
12314;SDS011;23886;46.614;14.276;2023-04-24T08:32:48;10.03;;;8.73;;
12314;SDS011;23886;46.614;14.276;2023-04-24T08:35:15;9.77;;;8.87;;
12314;SDS011;23886;46.614;14.276;2023-04-24T08:37:42;11.83;;;9.67;;
12314;SDS011;23886;46.614;14.276;2023-04-24T08:40:11;11.80;;;9.20;;
12314;SDS011;23886;46.614;14.276;2023-04-24T08:42:41;10.60;;;9.50;;
12314;SDS011;23886;46.614;14.276;2023-04-24T08:45:09;10.43;;;9.53;;
12314;SDS011;23886;46.614;14.276;2023-04-24T08:47:37;11.50;;;9.80;;
12314;SDS011;23886;46.614;14.276;2023-04-24T08:50:07;11.30;;;10.20;;
12314;SDS011;23886;46.614;14.276;2023-04-24T08:52:35;10.77;;;9.80;;
12314;SDS011;23886;46.614;14.276;2023-04-24T08:55:02;10.87;;;9.80;;
12314;SDS011;23886;46.614;14.276;2023-04-24T08:57:29;10.70;;;9.60;;
12314;SDS011;23886;46.614;14.276;2023-04-24T08:59:58;10.47;;;9.53;;
12314;SDS011;23886;46.614;14.276;2023-04-24T09:02:26;11.00;;;9.90;;
12314;SDS011;23886;46.614;14.276;2023-04-24T09:04:55;9.97;;;8.97;;
12314;SDS011;23886;46.614;14.276;2023-04-24T09:07:25;9.90;;;9.00;;
12314;SDS011;23886;46.614;14.276;2023-04-24T09:09:55;10.57;;;9.40;;
12314;SDS011;23886;46.614;14.276;2023-04-24T09:12:23;9.90;;;9.00;;
12314;SDS011;23886;46.614;14.276;2023-04-24T09:14:50;10.80;;;9.27;;
12314;SDS011;23886;46.614;14.276;2023-04-24T09:17:18;11.30;;;9.63;;
12314;SDS011;23886;46.614;14.276;2023-04-24T09:19:45;11.40;;;10.30;;
12314;SDS011;23886;46.614;14.276;2023-04-24T09:22:12;13.10;;;10.27;;
12314;SDS011;23886;46.614;14.276;2023-04-24T09:24:40;10.77;;;9.67;;
12314;SDS011;23886;46.614;14.276;2023-04-24T09:27:07;11.20;;;10.10;;
12314;SDS011;23886;46.614;14.276;2023-04-24T09:29:39;11.13;;;10.00;;
12314;SDS011;23886;46.614;14.276;2023-04-24T09:32:20;11.47;;;10.37;;
12314;SDS011;23886;46.614;14.276;2023-04-24T09:35:04;12.90;;;10.70;;
12314;SDS011;23886;46.614;14.276;2023-04-24T09:37:34;12.77;;;10.43;;
12314;SDS011;23886;46.614;14.276;2023-04-24T09:40:16;11.23;;;10.03;;
12314;SDS011;23886;46.614;14.276;2023-04-24T09:42:45;11.53;;;10.47;;
12314;SDS011;23886;46.614;14.276;2023-04-24T09:45:13;11.27;;;10.20;;
12314;SDS011;23886;46.614;14.276;2023-04-24T09:47:40;10.43;;;9.33;;
12314;SDS011;23886;46.614;14.276;2023-04-24T09:50:12;10.90;;;9.40;;
12314;SDS011;23886;46.614;14.276;2023-04-24T09:52:41;9.60;;;8.80;;
12314;SDS011;23886;46.614;14.276;2023-04-24T09:55:19;9.93;;;8.93;;
12314;SDS011;23886;46.614;14.276;2023-04-24T09:57:47;9.10;;;8.30;;
12314;SDS011;23886;46.614;14.276;2023-04-24T10:00:18;9.23;;;8.33;;
12314;SDS011;23886;46.614;14.276;2023-04-24T10:02:50;6.53;;;5.80;;
12314;SDS011;23886;46.614;14.276;2023-04-24T10:05:22;4.23;;;3.30;;
12314;SDS011;23886;46.614;14.276;2023-04-24T10:07:51;3.67;;;3.20;;
12314;SDS011;23886;46.614;14.276;2023-04-24T10:10:23;3.50;;;3.20;;
12314;SDS011;23886;46.614;14.276;2023-04-24T10:12:51;3.50;;;2.20;;
12314;SDS011;23886;46.614;14.276;2023-04-24T10:15:18;2.30;;;2.10;;
12314;SDS011;23886;46.614;14.276;2023-04-24T10:17:46;1.70;;;1.60;;
12314;SDS011;23886;46.614;14.276;2023-04-24T10:20:17;1.67;;;1.57;;
12314;SDS011;23886;46.614;14.276;2023-04-24T10:22:46;3.23;;;1.60;;
12314;SDS011;23886;46.614;14.276;2023-04-24T10:25:16;1.43;;;1.33;;
12314;SDS011;23886;46.614;14.276;2023-04-24T10:27:47;1.03;;;0.97;;
12314;SDS011;23886;46.614;14.276;2023-04-24T10:30:15;1.30;;;1.20;;
12314;SDS011;23886;46.614;14.276;2023-04-24T10:32:43;1.33;;;1.23;;
12314;SDS011;23886;46.614;14.276;2023-04-24T10:35:10;1.53;;;1.37;;
12314;SDS011;23886;46.614;14.276;2023-04-24T10:37:39;1.20;;;1.10;;
12314;SDS011;23886;46.614;14.276;2023-04-24T10:40:09;0.97;;;0.97;;
12314;SDS011;23886;46.614;14.276;2023-04-24T10:42:39;1.10;;;1.00;;
12314;SDS011;23886;46.614;14.276;2023-04-24T10:45:17;1.60;;;1.00;;
12314;SDS011;23886;46.614;14.276;2023-04-24T10:47:58;1.53;;;1.20;;
12314;SDS011;23886;46.614;14.276;2023-04-24T10:50:28;1.93;;;1.40;;
12314;SDS011;23886;46.614;14.276;2023-04-24T10:53:04;1.20;;;1.10;;
12314;SDS011;23886;46.614;14.276;2023-04-24T10:55:40;1.37;;;1.10;;
12314;SDS011;23886;46.614;14.276;2023-04-24T10:58:09;1.80;;;1.60;;
12314;SDS011;23886;46.614;14.276;2023-04-24T11:00:38;1.40;;;1.30;;
12314;SDS011;23886;46.614;14.276;2023-04-24T11:03:06;1.13;;;1.03;;
12314;SDS011;23886;46.614;14.276;2023-04-24T11:05:52;2.17;;;1.40;;
12314;SDS011;23886;46.614;14.276;2023-04-24T11:08:22;1.27;;;1.17;;
12314;SDS011;23886;46.614;14.276;2023-04-24T11:10:54;1.30;;;1.20;;
12314;SDS011;23886;46.614;14.276;2023-04-24T11:16:29;1.30;;;1.20;;
12314;SDS011;23886;46.614;14.276;2023-04-24T11:19:03;1.50;;;1.30;;
12314;SDS011;23886;46.614;14.276;2023-04-24T11:21:31;1.20;;;1.10;;
12314;SDS011;23886;46.614;14.276;2023-04-24T11:26:50;1.10;;;1.10;;
12314;SDS011;23886;46.614;14.276;2023-04-24T11:29:19;1.50;;;1.40;;
12314;SDS011;23886;46.614;14.276;2023-04-24T11:31:48;1.30;;;1.20;;
12314;SDS011;23886;46.614;14.276;2023-04-24T11:34:16;1.30;;;1.20;;
12314;SDS011;23886;46.614;14.276;2023-04-24T11:36:44;1.10;;;1.00;;
12314;SDS011;23886;46.614;14.276;2023-04-24T11:39:11;9.03;;;8.03;;
12314;SDS011;23886;46.614;14.276;2023-04-24T11:41:39;1.43;;;1.10;;
12314;SDS011;23886;46.614;14.276;2023-04-24T11:44:08;2.10;;;1.00;;
12314;SDS011;23886;46.614;14.276;2023-04-24T11:46:36;0.90;;;0.90;;
12314;SDS011;23886;46.614;14.276;2023-04-24T11:49:06;0.80;;;0.80;;
12314;SDS011;23886;46.614;14.276;2023-04-24T11:51:33;1.47;;;0.97;;
12314;SDS011;23886;46.614;14.276;2023-04-24T11:54:01;1.37;;;0.87;;
12314;SDS011;23886;46.614;14.276;2023-04-24T11:56:28;1.13;;;1.10;;
12314;SDS011;23886;46.614;14.276;2023-04-24T11:58:55;0.90;;;0.90;;
12314;SDS011;23886;46.614;14.276;2023-04-24T12:01:22;1.00;;;1.00;;
12314;SDS011;23886;46.614;14.276;2023-04-24T12:03:49;1.17;;;1.07;;
12314;SDS011;23886;46.614;14.276;2023-04-24T12:06:18;1.07;;;1.00;;
12314;SDS011;23886;46.614;14.276;2023-04-24T12:08:46;1.23;;;1.13;;
12314;SDS011;23886;46.614;14.276;2023-04-24T12:11:14;1.33;;;1.00;;
12314;SDS011;23886;46.614;14.276;2023-04-24T12:13:43;1.17;;;1.07;;
12314;SDS011;23886;46.614;14.276;2023-04-24T12:16:10;0.80;;;0.70;;
12314;SDS011;23886;46.614;14.276;2023-04-24T12:18:41;1.13;;;0.80;;
12314;SDS011;23886;46.614;14.276;2023-04-24T12:21:16;1.03;;;1.00;;
12314;SDS011;23886;46.614;14.276;2023-04-24T12:23:50;1.80;;;1.17;;
12314;SDS011;23886;46.614;14.276;2023-04-24T12:26:17;0.70;;;0.70;;
12314;SDS011;23886;46.614;14.276;2023-04-24T12:28:46;1.03;;;0.90;;
12314;SDS011;23886;46.614;14.276;2023-04-24T12:31:14;1.10;;;0.83;;
12314;SDS011;23886;46.614;14.276;2023-04-24T12:33:42;2.17;;;1.20;;
12314;SDS011;23886;46.614;14.276;2023-04-24T12:36:09;1.10;;;1.00;;
12314;SDS011;23886;46.614;14.276;2023-04-24T12:38:39;1.00;;;1.00;;
12314;SDS011;23886;46.614;14.276;2023-04-24T12:41:12;0.90;;;0.90;;
12314;SDS011;23886;46.614;14.276;2023-04-24T12:43:50;0.87;;;0.80;;
12314;SDS011;23886;46.614;14.276;2023-04-24T12:46:18;0.90;;;0.90;;
12314;SDS011;23886;46.614;14.276;2023-04-24T12:48:45;1.07;;;1.07;;
12314;SDS011;23886;46.614;14.276;2023-04-24T12:51:12;0.80;;;0.80;;
12314;SDS011;23886;46.614;14.276;2023-04-24T12:53:40;1.40;;;1.10;;
12314;SDS011;23886;46.614;14.276;2023-04-24T12:56:07;1.10;;;0.70;;
12314;SDS011;23886;46.614;14.276;2023-04-24T12:58:34;1.80;;;0.90;;
12314;SDS011;23886;46.614;14.276;2023-04-24T13:01:01;1.10;;;1.00;;
12314;SDS011;23886;46.614;14.276;2023-04-24T13:03:28;1.40;;;0.97;;
12314;SDS011;23886;46.614;14.276;2023-04-24T13:05:55;0.70;;;0.70;;
12314;SDS011;23886;46.614;14.276;2023-04-24T13:08:22;1.90;;;0.80;;
12314;SDS011;23886;46.614;14.276;2023-04-24T13:10:50;1.37;;;1.10;;
12314;SDS011;23886;46.614;14.276;2023-04-24T13:13:18;0.87;;;0.87;;
12314;SDS011;23886;46.614;14.276;2023-04-24T13:15:45;0.90;;;0.83;;
12314;SDS011;23886;46.614;14.276;2023-04-24T13:18:12;1.03;;;0.90;;
12314;SDS011;23886;46.614;14.276;2023-04-24T13:20:39;0.90;;;0.90;;
12314;SDS011;23886;46.614;14.276;2023-04-24T13:23:07;1.30;;;1.10;;
12314;SDS011;23886;46.614;14.276;2023-04-24T13:25:35;0.97;;;0.97;;
12314;SDS011;23886;46.614;14.276;2023-04-24T13:28:05;1.30;;;1.20;;
12314;SDS011;23886;46.614;14.276;2023-04-24T13:30:32;0.90;;;0.90;;
12314;SDS011;23886;46.614;14.276;2023-04-24T13:32:59;1.20;;;1.10;;
12314;SDS011;23886;46.614;14.276;2023-04-24T13:35:26;1.97;;;1.00;;
12314;SDS011;23886;46.614;14.276;2023-04-24T13:37:53;1.80;;;0.90;;
12314;SDS011;23886;46.614;14.276;2023-04-24T13:40:21;1.00;;;1.00;;
12314;SDS011;23886;46.614;14.276;2023-04-24T13:42:48;1.13;;;1.10;;
12314;SDS011;23886;46.614;14.276;2023-04-24T13:45:17;1.07;;;1.07;;
12314;SDS011;23886;46.614;14.276;2023-04-24T13:47:44;1.30;;;1.17;;
12314;SDS011;23886;46.614;14.276;2023-04-24T13:50:11;1.80;;;1.70;;
12314;SDS011;23886;46.614;14.276;2023-04-24T13:52:38;0.93;;;0.93;;
12314;SDS011;23886;46.614;14.276;2023-04-24T13:55:05;1.57;;;1.43;;
12314;SDS011;23886;46.614;14.276;2023-04-24T13:57:32;2.77;;;1.60;;
12314;SDS011;23886;46.614;14.276;2023-04-24T13:59:59;1.40;;;1.30;;
12314;SDS011;23886;46.614;14.276;2023-04-24T14:02:30;1.27;;;1.17;;
12314;SDS011;23886;46.614;14.276;2023-04-24T14:04:57;2.30;;;1.13;;
12314;SDS011;23886;46.614;14.276;2023-04-24T14:07:24;2.00;;;1.00;;
12314;SDS011;23886;46.614;14.276;2023-04-24T14:09:51;1.03;;;1.03;;
12314;SDS011;23886;46.614;14.276;2023-04-24T14:12:18;2.70;;;1.20;;
12314;SDS011;23886;46.614;14.276;2023-04-24T14:14:46;2.23;;;1.10;;
12314;SDS011;23886;46.614;14.276;2023-04-24T14:17:13;1.60;;;1.50;;
12314;SDS011;23886;46.614;14.276;2023-04-24T14:19:42;1.50;;;1.40;;
12314;SDS011;23886;46.614;14.276;2023-04-24T14:22:09;1.93;;;1.73;;
12314;SDS011;23886;46.614;14.276;2023-04-24T14:24:36;1.53;;;1.43;;
12314;SDS011;23886;46.614;14.276;2023-04-24T14:27:03;2.23;;;1.43;;
12314;SDS011;23886;46.614;14.276;2023-04-24T14:29:30;2.53;;;1.20;;
12314;SDS011;23886;46.614;14.276;2023-04-24T14:31:57;1.30;;;1.20;;
12314;SDS011;23886;46.614;14.276;2023-04-24T14:34:24;1.77;;;1.20;;
12314;SDS011;23886;46.614;14.276;2023-04-24T14:36:52;1.20;;;1.10;;
12314;SDS011;23886;46.614;14.276;2023-04-24T14:39:20;1.93;;;1.20;;